Time;durP1;ratioP1;P1;durP2;ratioP2;P2;SDS_P1;SDS_P2;PMS_P1;PMS_P2;Temp;Humidity;BMP_temperature;BMP_pressure;BME280_temperature;BME280_humidity;BME280_pressure;Samples;Min_cycle;Max_cycle;Signal;HPM_P1;HPM_P2
2023/04/23 14:44:28;;;;;;;11.00;3.20;;;;;;;22.44;23.28;98794.95;102460;1294;602310;-65
2023/04/23 14:47:17;;;;;;;9.60;3.30;;;;;;;22.47;22.83;98784.37;105026;1271;59455;-65
2023/04/23 14:50:05;;;;;;;8.40;3.50;;;;;;;22.51;22.89;98779.11;104577;1274;59256;-65
2023/04/23 14:52:56;;;;;;;11.10;3.80;;;;;;;22.55;22.81;98786.03;104454;1270;71824;-64
2023/04/23 14:55:45;;;;;;;7.70;3.20;;;;;;;22.50;23.11;98773.78;105172;1272;68643;-66
2023/04/23 14:58:32;;;;;;;7.70;3.20;;;;;;;22.53;23.22;98777.83;104888;1269;176205;-64
2023/04/23 15:01:20;;;;;;;9.90;3.50;;;;;;;22.59;23.13;98782.55;105217;1268;59418;-64
2023/04/23 15:04:10;;;;;;;9.60;3.30;;;;;;;22.59;22.86;98771.92;105747;1261;61897;-65
2023/04/23 15:06:59;;;;;;;8.80;3.30;;;;;;;22.64;23.03;98769.27;106493;1261;70662;-64
2023/04/23 15:09:46;;;;;;;7.90;3.10;;;;;;;22.68;23.26;98768.29;108391;1260;67875;-65
2023/04/23 15:12:39;;;;;;;7.60;3.00;;;;;;;22.53;23.33;98772.41;107996;1262;72665;-64
2023/04/23 15:15:37;;;;;;;10.10;3.40;;;;;;;22.43;23.55;98769.61;105693;1263;59335;-65
2023/04/23 15:18:32;;;;;;;11.00;3.10;;;;;;;22.33;23.75;98774.11;105554;1261;60769;-63
2023/04/23 15:21:20;;;;;;;9.70;3.40;;;;;;;22.20;24.18;98771.00;105371;1260;70742;-64
2023/04/23 15:24:07;;;;;;;9.50;3.30;;;;;;;22.12;24.28;98769.94;105561;1259;68213;-64
2023/04/23 15:26:58;;;;;;;8.30;3.20;;;;;;;22.05;24.51;98771.39;105844;1259;73398;-64
2023/04/23 15:29:45;;;;;;;8.00;3.50;;;;;;;21.89;24.52;98769.02;106344;1261;59292;-65
2023/04/23 15:32:34;;;;;;;11.40;3.50;;;;;;;21.82;24.73;98772.16;105983;1259;59997;-66
2023/04/23 15:35:26;;;;;;;9.80;3.20;;;;;;;21.74;24.88;98772.91;106779;1259;70630;-65
2023/04/23 15:38:12;;;;;;;9.30;3.50;;;;;;;21.71;25.16;98769.95;106142;1265;69361;-65
2023/04/23 15:41:00;;;;;;;9.80;2.90;;;;;;;21.68;25.38;98769.52;105373;1265;73977;-63
2023/04/23 15:43:49;;;;;;;9.50;3.20;;;;;;;21.64;25.72;98763.35;105459;1261;59423;-65
2023/04/23 15:46:35;;;;;;;8.30;3.10;;;;;;;21.60;25.90;98764.34;105095;1260;59787;-64
2023/04/23 15:49:23;;;;;;;8.70;3.20;;;;;;;21.56;25.96;98764.45;105407;1261;71867;-66
2023/04/23 15:52:10;;;;;;;12.50;3.20;;;;;;;21.56;26.05;98765.00;105679;1264;69960;-67
2023/04/23 15:54:58;;;;;;;9.00;3.40;;;;;;;21.55;26.20;98763.98;105575;1256;71658;-66
2023/04/23 15:57:46;;;;;;;13.20;3.70;;;;;;;21.52;26.41;98764.20;105791;1263;59517;-67
2023/04/23 16:00:33;;;;;;;9.80;3.50;;;;;;;21.48;26.81;98760.14;105870;1256;59756;-66
2023/04/23 16:03:21;;;;;;;8.60;2.80;;;;;;;21.43;27.11;98765.52;106097;1256;71445;-67
2023/04/23 16:06:08;;;;;;;9.50;3.50;;;;;;;21.35;27.51;98768.90;106072;1253;68383;-67
2023/04/23 16:08:57;;;;;;;8.50;3.90;;;;;;;21.32;28.15;98786.00;106067;1253;73137;-67
2023/04/23 16:11:44;;;;;;;11.50;4.70;;;;;;;21.16;32.20;98797.16;106067;1253;59263;-66
2023/04/23 16:14:30;;;;;;;13.00;5.30;;;;;;;20.80;35.01;98798.73;105778;1253;61656;-64
2023/04/23 16:17:18;;;;;;;11.10;6.00;;;;;;;20.37;36.76;98797.68;106248;1254;71138;-68
2023/04/23 16:20:07;;;;;;;11.20;5.20;;;;;;;19.95;38.31;98803.87;105949;1253;67130;-67
2023/04/23 16:22:54;;;;;;;14.50;6.10;;;;;;;19.63;39.08;98806.38;106097;1253;72631;-66
2023/04/23 16:25:40;;;;;;;12.80;6.00;;;;;;;19.38;40.00;98809.38;106048;1255;59272;-67
2023/04/23 16:28:27;;;;;;;14.10;5.90;;;;;;;19.14;41.14;98812.91;105553;1259;61113;-67
2023/04/23 16:31:14;;;;;;;11.00;5.40;;;;;;;18.89;41.59;98811.38;106166;1259;72054;-66
2023/04/23 16:34:01;;;;;;;12.30;6.30;;;;;;;18.67;42.48;98812.81;105814;1261;67625;-67
2023/04/23 16:36:48;;;;;;;12.40;6.10;;;;;;;18.45;43.33;98813.54;105668;1258;72794;-67
2023/04/23 16:39:35;;;;;;;14.40;6.90;;;;;;;18.25;44.15;98822.84;105767;1259;59282;-64
2023/04/23 16:42:23;;;;;;;13.70;7.10;;;;;;;18.06;45.06;98829.66;107364;1259;61196;-67
2023/04/23 16:45:10;;;;;;;12.70;6.70;;;;;;;17.84;46.05;98842.46;105443;1261;71467;-67
2023/04/23 16:47:57;;;;;;;11.50;6.70;;;;;;;17.66;46.68;98846.20;105629;1256;66911;-66
2023/04/23 16:50:43;;;;;;;11.80;6.70;;;;;;;17.50;48.48;98848.92;105757;1256;71958;-68
2023/04/23 16:53:30;;;;;;;13.30;6.10;;;;;;;17.30;50.41;98854.86;105675;1256;59316;-69
2023/04/23 16:56:19;;;;;;;11.50;6.20;;;;;;;17.00;53.80;98881.98;105611;1261;59646;-67
2023/04/23 16:59:09;;;;;;;14.20;7.90;;;;;;;16.60;56.37;98896.11;106770;1253;72549;-67
2023/04/23 17:01:58;;;;;;;13.50;7.80;;;;;;;16.32;57.48;98890.95;107253;1257;67733;-66
2023/04/23 17:04:47;;;;;;;17.10;7.40;;;;;;;16.13;58.08;98896.66;106129;1253;72565;-67
2023/04/23 17:07:42;;;;;;;13.30;7.80;;;;;;;15.95;59.66;98901.22;106502;1258;59336;-66
2023/04/23 17:10:29;;;;;;;14.20;8.30;;;;;;;15.73;61.22;98904.16;106060;1257;60267;-67
2023/04/23 17:13:16;;;;;;;13.90;8.00;;;;;;;15.55;61.65;98907.38;106187;1256;72926;-67
2023/04/23 17:16:03;;;;;;;18.60;8.30;;;;;;;15.41;62.44;98907.34;105979;1255;67192;-67
2023/04/23 17:18:53;;;;;;;14.70;8.30;;;;;;;15.29;62.99;98904.58;105795;1253;1003344;-65
2023/04/23 17:21:41;;;;;;;16.40;9.10;;;;;;;15.20;64.31;98900.48;106514;1253;59192;-67
2023/04/23 17:24:27;;;;;;;14.60;8.70;;;;;;;15.06;65.64;98900.17;106108;1253;59243;-66
2023/04/23 17:27:15;;;;;;;13.90;8.20;;;;;;;14.93;66.72;98898.73;106319;1252;72944;-67
2023/04/23 17:30:04;;;;;;;16.80;10.50;;;;;;;14.79;67.37;98901.27;105943;1257;67004;-68
2023/04/23 17:32:51;;;;;;;14.50;9.10;;;;;;;14.68;68.18;98896.34;105953;1252;73917;-67
2023/04/23 17:35:39;;;;;;;14.90;8.90;;;;;;;14.61;68.97;98898.71;106176;1253;59382;-68
2023/04/23 17:38:29;;;;;;;13.00;8.70;;;;;;;14.54;68.78;98895.39;105765;1258;59809;-70
2023/04/23 17:41:16;;;;;;;16.00;8.20;;;;;;;14.47;69.97;98893.73;105959;1256;72767;-67
2023/04/23 17:44:03;;;;;;;11.00;7.10;;;;;;;14.39;70.59;98892.24;105890;1256;68239;-67
2023/04/23 17:46:53;;;;;;;15.00;9.50;;;;;;;14.28;71.52;98889.58;105581;1256;72073;-67
2023/04/23 17:49:45;;;;;;;16.60;10.20;;;;;;;14.18;72.35;98888.42;106492;1256;59469;-66
2023/04/23 17:52:32;;;;;;;14.30;9.50;;;;;;;14.10;72.37;98886.54;105427;1261;60656;-64
2023/04/23 17:55:20;;;;;;;14.70;8.90;;;;;;;14.06;72.57;98883.96;107855;1256;73055;-67
2023/04/23 17:58:08;;;;;;;16.70;10.10;;;;;;;14.01;72.88;98885.42;106087;1259;67639;-67
2023/04/23 18:00:55;;;;;;;17.10;10.40;;;;;;;13.97;73.48;98890.36;106123;1255;72236;-66
2023/04/23 18:03:42;;;;;;;18.60;11.50;;;;;;;13.94;73.78;98893.38;105821;1256;59178;-66
2023/04/23 18:06:32;;;;;;;17.60;9.60;;;;;;;13.90;73.78;98901.33;105912;1259;60911;-68
2023/04/23 18:09:18;;;;;;;18.60;10.10;;;;;;;13.86;75.30;98905.45;105457;1256;71879;-67
2023/04/23 18:12:05;;;;;;;19.60;9.90;;;;;;;13.80;75.79;98911.33;105427;1258;68330;-67
2023/04/23 18:14:52;;;;;;;16.50;9.90;;;;;;;13.73;76.09;98910.40;106227;1253;74175;-68
2023/04/23 18:17:38;;;;;;;15.20;10.00;;;;;;;13.69;76.83;98905.59;106046;1257;59254;-67
2023/04/23 18:20:25;;;;;;;18.80;10.30;;;;;;;13.63;77.18;98910.80;106151;1258;60750;-67
2023/04/23 18:23:13;;;;;;;19.40;10.90;;;;;;;13.58;77.77;98911.30;106042;1254;71796;-67
2023/04/23 18:26:00;;;;;;;17.70;11.40;;;;;;;13.54;77.53;98917.52;106185;1253;67227;-66
2023/04/23 18:28:47;;;;;;;20.20;11.70;;;;;;;13.52;78.20;98924.52;105843;1257;72547;-67
2023/04/23 18:31:35;;;;;;;18.50;11.70;;;;;;;13.50;78.00;98927.23;105782;1253;61123;-66
2023/04/23 18:34:23;;;;;;;21.10;11.70;;;;;;;13.48;78.42;98923.98;106003;1258;60019;-67
2023/04/23 18:37:32;;;;;;;18.60;12.40;;;;;;;13.45;78.70;98924.70;106124;1253;72347;-66
2023/04/23 18:40:19;;;;;;;17.70;11.40;;;;;;;13.41;79.70;98926.70;106115;1256;66590;-66
2023/04/23 18:43:07;;;;;;;15.90;10.20;;;;;;;13.38;79.14;98928.30;105898;1254;74245;-67
2023/04/23 18:45:55;;;;;;;18.80;10.90;;;;;;;13.35;79.46;98927.91;105907;1259;59589;-67
2023/04/23 18:48:58;;;;;;;18.10;11.70;;;;;;;13.34;79.65;98929.40;105855;1253;59734;-66
2023/04/23 18:51:50;;;;;;;18.30;11.50;;;;;;;13.32;79.90;98937.67;105829;1260;71996;-67
2023/04/23 18:54:39;;;;;;;16.70;11.00;;;;;;;13.28;80.48;98932.12;106114;1254;67388;-68
2023/04/23 18:57:28;;;;;;;16.10;10.50;;;;;;;13.26;81.08;98926.16;105834;1264;73261;-68
2023/04/23 19:00:15;;;;;;;17.20;11.30;;;;;;;13.23;82.13;98918.14;106240;1260;59178;-68
2023/04/23 19:03:03;;;;;;;15.30;10.20;;;;;;;13.17;83.00;98925.82;105941;1260;59511;-68
2023/04/23 19:06:06;;;;;;;18.00;11.60;;;;;;;13.12;83.64;98942.20;106234;1253;72500;-67
2023/04/23 19:08:53;;;;;;;16.90;10.10;;;;;;;13.08;84.23;98939.30;106254;1257;67066;-65
2023/04/23 19:11:40;;;;;;;18.40;12.60;;;;;;;13.06;83.99;98943.35;105542;1253;71588;-64
2023/04/23 19:14:27;;;;;;;16.60;10.90;;;;;;;13.04;84.55;98936.84;105761;1260;59327;-65
2023/04/23 19:17:15;;;;;;;18.20;11.00;;;;;;;13.02;84.39;98935.77;105648;1254;62000;-64
2023/04/23 19:20:09;;;;;;;17.90;10.00;;;;;;;13.03;84.59;98932.56;105808;1258;71884;-64
2023/04/23 19:22:58;;;;;;;15.50;9.70;;;;;;;13.01;84.45;98928.98;106809;1252;68581;-65
2023/04/23 19:25:46;;;;;;;18.20;10.50;;;;;;;13.01;84.82;98935.03;106934;1257;72693;-65
2023/04/23 19:28:35;;;;;;;15.70;10.90;;;;;;;12.98;85.02;98934.65;106268;1254;59718;-66
2023/04/23 19:31:27;;;;;;;16.20;10.60;;;;;;;12.95;84.86;98932.08;106102;1256;60928;-64
2023/04/23 19:34:16;;;;;;;14.70;9.80;;;;;;;12.92;85.15;98936.47;105710;1254;73601;-65
2023/04/23 19:37:03;;;;;;;15.70;10.70;;;;;;;12.90;85.70;98937.54;106302;1259;68092;-64
2023/04/23 19:39:56;;;;;;;18.60;11.20;;;;;;;12.89;84.95;98932.75;106582;1259;73183;-65
2023/04/23 19:42:44;;;;;;;14.50;9.10;;;;;;;12.90;85.62;98928.36;105894;1260;60099;-65
2023/04/23 19:45:32;;;;;;;14.90;9.50;;;;;;;12.88;85.50;98929.12;105903;1256;61226;-69
2023/04/23 19:48:20;;;;;;;17.00;10.00;;;;;;;12.82;85.49;98930.77;105712;1254;73201;-65
2023/04/23 19:51:07;;;;;;;14.10;9.20;;;;;;;12.80;85.73;98941.67;106200;1259;68287;-65
2023/04/23 19:53:55;;;;;;;13.10;9.10;;;;;;;12.79;85.48;98952.64;105798;1268;72914;-66
2023/04/23 19:56:42;;;;;;;13.50;10.00;;;;;;;12.73;85.91;98949.02;105934;1262;59301;-65
2023/04/23 19:59:29;;;;;;;14.50;9.20;;;;;;;12.69;85.71;98961.17;105257;1259;61634;-65
2023/04/23 20:02:17;;;;;;;14.30;9.20;;;;;;;12.65;86.01;98964.82;105602;1257;72943;-65
2023/04/23 20:05:09;;;;;;;12.60;8.00;;;;;;;12.59;86.84;98964.95;105682;1258;69373;-65
2023/04/23 20:08:07;;;;;;;12.10;8.00;;;;;;;12.54;87.30;98968.34;105561;1261;72728;-65
2023/04/23 20:10:55;;;;;;;13.20;8.30;;;;;;;12.52;87.03;98962.20;105899;1261;59576;-65
2023/04/23 20:13:45;;;;;;;14.90;9.20;;;;;;;12.53;87.14;98961.97;106380;1264;59510;-65
2023/04/23 20:16:33;;;;;;;14.90;8.10;;;;;;;12.56;87.86;98964.81;105557;1264;72863;-64
2023/04/23 20:19:20;;;;;;;13.30;7.20;;;;;;;12.55;89.41;98971.18;106123;1261;67690;-64
2023/04/23 20:22:09;;;;;;;12.50;7.80;;;;;;;12.49;89.22;98973.32;105320;1264;72663;-65
2023/04/23 20:25:00;;;;;;;12.90;8.10;;;;;;;12.47;89.11;98968.07;105645;1267;59531;-65
2023/04/23 20:27:47;;;;;;;12.70;8.10;;;;;;;12.45;89.35;98964.50;106199;1270;60594;-64
2023/04/23 20:30:35;;;;;;;13.30;7.80;;;;;;;12.43;89.42;98958.64;105649;1267;72530;-65
2023/04/23 20:33:22;;;;;;;14.20;9.30;;;;;;;12.43;89.20;98954.21;106197;1260;66740;-65
2023/04/23 20:36:10;;;;;;;14.60;8.90;;;;;;;12.44;89.52;98957.65;105595;1263;73274;-65
2023/04/23 20:38:59;;;;;;;14.60;9.00;;;;;;;12.44;89.40;98951.80;105952;1261;59721;-65
2023/04/23 20:41:47;;;;;;;12.40;7.80;;;;;;;12.45;90.15;98957.95;105512;1267;61689;-66
2023/04/23 20:44:33;;;;;;;14.10;8.10;;;;;;;12.40;90.06;98959.16;105766;1257;73375;-67
2023/04/23 20:47:19;;;;;;;12.70;7.90;;;;;;;12.35;90.26;98957.84;105828;1260;67701;-66
2023/04/23 20:50:08;;;;;;;11.10;6.90;;;;;;;12.30;90.27;98956.44;105961;1258;72637;-66
2023/04/23 20:52:54;;;;;;;13.10;8.10;;;;;;;12.28;90.61;98955.80;106564;1257;59360;-66
2023/04/23 20:55:41;;;;;;;14.40;8.50;;;;;;;12.27;90.24;98954.58;106073;1257;59726;-67
2023/04/23 20:58:28;;;;;;;15.10;8.40;;;;;;;12.25;90.19;98960.30;106149;1254;72246;-67
2023/04/23 21:01:18;;;;;;;14.10;7.60;;;;;;;12.22;90.20;98959.20;106090;1257;67154;-67
2023/04/23 21:04:07;;;;;;;15.80;8.90;;;;;;;12.18;90.63;98959.02;105788;1253;71856;-67
2023/04/23 21:06:55;;;;;;;13.70;8.20;;;;;;;12.15;90.29;98964.17;105694;1254;59308;-69
2023/04/23 21:09:43;;;;;;;12.00;6.30;;;;;;;12.14;91.22;98963.39;106346;1257;60738;-67
2023/04/23 21:12:32;;;;;;;11.70;6.80;;;;;;;12.10;92.13;98964.70;106304;1256;72780;-67
2023/04/23 21:15:21;;;;;;;14.20;7.70;;;;;;;12.04;92.73;98964.40;105887;1258;66979;-66
2023/04/23 21:18:10;;;;;;;13.10;7.70;;;;;;;11.99;93.05;98966.13;105684;1253;73276;-67
2023/04/23 21:20:58;;;;;;;13.60;8.70;;;;;;;11.96;93.02;98963.10;106147;1261;59344;-68
2023/04/23 21:23:46;;;;;;;13.50;9.00;;;;;;;11.93;93.06;98958.86;106236;1258;60991;-69
2023/04/23 21:26:36;;;;;;;15.00;9.40;;;;;;;11.94;93.59;98958.11;105517;1262;71953;-70
2023/04/23 21:29:27;;;;;;;12.50;7.40;;;;;;;11.97;94.29;98963.74;105823;1260;66556;-68
2023/04/23 21:32:16;;;;;;;12.40;7.30;;;;;;;11.93;94.31;98973.60;106322;1261;72467;-67
2023/04/23 21:35:07;;;;;;;10.90;6.70;;;;;;;11.90;93.70;98967.91;105573;1258;59367;-68
2023/04/23 21:37:55;;;;;;;13.40;7.20;;;;;;;11.83;93.81;98963.30;105725;1260;59362;-68
2023/04/23 21:40:44;;;;;;;13.10;7.30;;;;;;;11.84;93.65;98966.39;105726;1261;72278;-67
2023/04/23 21:43:38;;;;;;;12.50;7.50;;;;;;;11.84;93.25;98964.92;106582;1260;68674;-67
2023/04/23 21:46:27;;;;;;;13.80;7.80;;;;;;;11.88;93.42;98962.55;105609;1260;72980;-69
2023/04/23 21:49:18;;;;;;;13.10;7.70;;;;;;;11.95;93.53;98965.45;105771;1260;59415;-68
2023/04/23 21:52:08;;;;;;;12.20;7.40;;;;;;;12.02;93.36;98964.59;105884;1255;60941;-67
2023/04/23 21:54:57;;;;;;;13.20;7.80;;;;;;;12.08;93.09;98961.89;106150;1254;72629;-67
2023/04/23 21:57:47;;;;;;;13.90;7.50;;;;;;;12.12;92.86;98962.31;105846;1259;68132;-68
2023/04/23 22:00:35;;;;;;;13.10;7.30;;;;;;;12.17;92.88;98958.62;106284;1252;70871;-67
2023/04/23 22:03:23;;;;;;;13.10;7.60;;;;;;;12.22;92.72;98956.35;106251;1253;60323;-68
2023/04/23 22:06:26;;;;;;;13.10;7.80;;;;;;;12.24;92.35;98949.20;108049;1256;61280;-70
2023/04/23 22:09:14;;;;;;;12.90;7.10;;;;;;;12.25;92.06;98942.17;107122;1254;72131;-68
2023/04/23 22:12:03;;;;;;;13.80;8.10;;;;;;;12.24;92.10;98939.23;106068;1257;68360;-68
2023/04/23 22:14:51;;;;;;;13.30;8.00;;;;;;;12.24;92.15;98937.67;106008;1256;73756;-67
2023/04/23 22:17:47;;;;;;;13.70;8.10;;;;;;;12.23;92.21;98943.93;105913;1252;59689;-63
2023/04/23 22:20:37;;;;;;;13.50;8.80;;;;;;;12.22;92.49;98944.95;105935;1258;59266;-64
2023/04/23 22:23:27;;;;;;;14.50;7.90;;;;;;;12.21;92.69;98945.21;105878;1257;72825;-64
2023/04/23 22:26:15;;;;;;;12.30;7.90;;;;;;;12.20;92.63;98948.06;105977;1254;68374;-65
2023/04/23 22:29:03;;;;;;;14.20;7.70;;;;;;;12.19;93.52;98944.90;105678;1257;73234;-65
2023/04/23 22:31:52;;;;;;;13.10;8.40;;;;;;;12.17;92.92;98950.48;105834;1253;59344;-64
2023/04/23 22:34:40;;;;;;;12.70;7.10;;;;;;;12.14;92.61;98950.79;106076;1254;60618;-65
2023/04/23 22:37:30;;;;;;;13.30;7.90;;;;;;;12.12;92.75;98949.02;105954;1254;73842;-65
2023/04/23 22:40:18;;;;;;;12.50;7.40;;;;;;;12.07;93.10;98946.09;106021;1254;67814;-64
2023/04/23 22:43:07;;;;;;;11.80;7.00;;;;;;;12.03;93.76;98947.95;105803;1265;73041;-65
2023/04/23 22:45:56;;;;;;;11.60;7.00;;;;;;;11.99;93.90;98945.23;105759;1270;59319;-64
2023/04/23 22:48:46;;;;;;;13.20;8.20;;;;;;;11.90;93.92;98943.70;105910;1254;61783;-65
2023/04/23 22:51:37;;;;;;;13.30;7.60;;;;;;;11.84;94.04;98936.83;105975;1257;70878;-63
2023/04/23 22:54:27;;;;;;;12.50;7.60;;;;;;;11.79;94.24;98932.42;105860;1263;66741;-66
2023/04/23 22:57:16;;;;;;;14.10;8.30;;;;;;;11.76;94.59;98930.06;105782;1254;73234;-65
2023/04/23 23:00:06;;;;;;;19.20;11.30;;;;;;;11.72;94.74;98933.57;105487;1261;61208;-64
2023/04/23 23:02:54;;;;;;;13.60;7.60;;;;;;;11.73;95.42;98931.44;105715;1256;60521;-65
2023/04/23 23:05:42;;;;;;;11.80;6.70;;;;;;;11.71;95.00;98929.63;105658;1256;72545;-66
2023/04/23 23:08:30;;;;;;;12.00;6.60;;;;;;;11.68;95.25;98932.23;105573;1260;69494;-66
2023/04/23 23:11:18;;;;;;;11.30;6.90;;;;;;;11.66;95.07;98935.11;105664;1257;72216;-65
2023/04/23 23:14:07;;;;;;;12.40;6.70;;;;;;;11.67;95.02;98932.89;105656;1256;59434;-65
2023/04/23 23:16:56;;;;;;;12.80;6.50;;;;;;;11.68;94.74;98931.70;105793;1257;60698;-65
2023/04/23 23:19:44;;;;;;;12.50;6.00;;;;;;;11.70;94.44;98929.91;105689;1256;72912;-65
2023/04/23 23:22:36;;;;;;;10.50;6.00;;;;;;;11.72;94.13;98924.59;105503;1257;67280;-65
2023/04/23 23:25:25;;;;;;;11.00;6.10;;;;;;;11.76;94.50;98921.33;105727;1258;73106;-64
2023/04/23 23:28:15;;;;;;;12.10;5.90;;;;;;;11.80;93.96;98923.11;105666;1261;59197;-65
2023/04/23 23:31:04;;;;;;;11.60;5.50;;;;;;;11.80;93.97;98921.96;105717;1257;62068;-65
2023/04/23 23:33:53;;;;;;;10.10;6.00;;;;;;;11.84;93.22;98923.17;106039;1252;71581;-65
2023/04/23 23:36:43;;;;;;;9.60;5.10;;;;;;;11.85;93.34;98920.27;105991;1258;68470;-65
2023/04/23 23:39:32;;;;;;;10.10;6.30;;;;;;;11.83;93.09;98915.99;105817;1254;74018;-65
2023/04/23 23:42:20;;;;;;;11.50;6.60;;;;;;;11.83;92.80;98918.29;105824;1254;59232;-65
2023/04/23 23:45:09;;;;;;;10.90;6.20;;;;;;;11.84;92.94;98914.54;105867;1254;59335;-67
2023/04/23 23:47:58;;;;;;;9.90;5.30;;;;;;;11.84;92.72;98914.27;105950;1254;72801;-64
2023/04/23 23:50:46;;;;;;;11.00;6.50;;;;;;;11.85;92.74;98913.30;105953;1257;67423;-64
2023/04/23 23:53:34;;;;;;;10.40;6.00;;;;;;;11.88;92.83;98918.19;105947;1258;72115;-66
2023/04/23 23:56:22;;;;;;;11.00;6.40;;;;;;;11.88;92.35;98915.45;106058;1254;59221;-64
2023/04/23 23:59:11;;;;;;;11.20;6.30;;;;;;;11.88;92.38;98913.86;105947;1257;60935;-64
